Hovedside
METAR-TAF:

METAR-TAF

Lufthavner :

N'Djamena internasjonale lufthavn

N'Djamena, Tsjad

breddegrad: 12-08N, lengdegrad: 015-02E, høyde over havet: 295 m

Gjeldene værobservasjon

Denne rapporten ble laget for 1 time og 14 minutter siden, klokken 11:00 UTC
Vind 9 kt fra Nord, skiftende mellom Nord og Øst
Temperatur 28°C
Luftfuktighet 14%
Trykk 1015 hPa
Sikt: 4500 m
mye støv

METAR: FTTJ 181100Z 36009KT 360V090 4500 DU NSC 28/M02 Q1015 NOSIG

Tid: 13:14 (12:14 UTC)

Varsel

Denne rapporten ble laget for 7 timer og 14 minutter siden, klokken 05:00 UTC
Varsel gyldig fra 18. klokken 06 UTC til 19. klokken 12 UTC
Vind 10 kt fra Nord
Sikt: 1500 m
mye støv
Blir
fra 18. klokken 09 UTC til 18. klokken 11 UTC
Sikt: 4500 m

TAF: FTTJ 180500Z 1806/1912 01010KT 1500 DU NSC BECMG 1809/1811 4500

Værobservasjoner og værvarsel for over 4000 flyplasser (METAR- og TAF-rapporter).

Tilgjengelige stasjoner er representert av de røde og gule prikkene på kartet.

Hold musepekeren over prikken for å se navnet på stasjonen.

Klikk så for å se værobservasjoner og -varsler.

For å forandre kartet kan du klikke på den grønne knappen med svart kryss for å zoome inn, på den grønne knappen med strek for å zoome ut, eller på de grønne pilene for å se tilstøtende kart.


METAR-TAF: